sensor_id;sensor_type;location;lat;lon;timestamp;temperature;humidity
17092;DHT22;8661;45.700;4.880;2022-12-29T00:01:31;10.90;99.90
17092;DHT22;8661;45.700;4.880;2022-12-29T00:03:58;11.00;99.90
17092;DHT22;8661;45.700;4.880;2022-12-29T00:06:27;11.00;99.90
17092;DHT22;8661;45.700;4.880;2022-12-29T00:08:54;11.00;99.90
17092;DHT22;8661;45.700;4.880;2022-12-29T00:11:22;11.00;99.90
17092;DHT22;8661;45.700;4.880;2022-12-29T00:13:49;11.00;99.90
17092;DHT22;8661;45.700;4.880;2022-12-29T00:16:35;10.90;99.90
17092;DHT22;8661;45.700;4.880;2022-12-29T00:19:02;11.00;99.90
17092;DHT22;8661;45.700;4.880;2022-12-29T00:21:31;10.90;99.90
17092;DHT22;8661;45.700;4.880;2022-12-29T00:24:17;10.90;99.90
17092;DHT22;8661;45.700;4.880;2022-12-29T00:27:11;11.00;99.90
17092;DHT22;8661;45.700;4.880;2022-12-29T00:29:56;11.00;99.90
17092;DHT22;8661;45.700;4.880;2022-12-29T00:32:40;11.00;99.90
17092;DHT22;8661;45.700;4.880;2022-12-29T00:35:27;11.10;99.90
17092;DHT22;8661;45.700;4.880;2022-12-29T00:37:58;11.10;99.90
17092;DHT22;8661;45.700;4.880;2022-12-29T00:40:43;11.10;99.90
17092;DHT22;8661;45.700;4.880;2022-12-29T00:43:27;11.10;99.90
17092;DHT22;8661;45.700;4.880;2022-12-29T00:46:11;11.10;99.90
17092;DHT22;8661;45.700;4.880;2022-12-29T00:48:38;11.10;99.90
17092;DHT22;8661;45.700;4.880;2022-12-29T00:51:22;11.20;99.90
17092;DHT22;8661;45.700;4.880;2022-12-29T00:53:50;11.20;99.90
17092;DHT22;8661;45.700;4.880;2022-12-29T00:56:19;11.20;99.90
17092;DHT22;8661;45.700;4.880;2022-12-29T00:58:46;11.30;99.90
17092;DHT22;8661;45.700;4.880;2022-12-29T01:01:13;11.30;99.90
17092;DHT22;8661;45.700;4.880;2022-12-29T01:03:40;11.30;99.90
17092;DHT22;8661;45.700;4.880;2022-12-29T01:06:09;11.30;99.90
17092;DHT22;8661;45.700;4.880;2022-12-29T01:08:36;11.40;99.90
17092;DHT22;8661;45.700;4.880;2022-12-29T01:11:06;11.40;99.90
17092;DHT22;8661;45.700;4.880;2022-12-29T01:13:32;11.40;99.90
17092;DHT22;8661;45.700;4.880;2022-12-29T01:15:59;11.30;99.90
17092;DHT22;8661;45.700;4.880;2022-12-29T01:18:26;11.30;99.90
17092;DHT22;8661;45.700;4.880;2022-12-29T01:20:59;11.30;99.90
17092;DHT22;8661;45.700;4.880;2022-12-29T01:23:26;11.30;99.90
17092;DHT22;8661;45.700;4.880;2022-12-29T01:25:53;11.30;99.90
17092;DHT22;8661;45.700;4.880;2022-12-29T01:28:21;11.20;99.90
17092;DHT22;8661;45.700;4.880;2022-12-29T01:30:48;11.20;99.90
17092;DHT22;8661;45.700;4.880;2022-12-29T01:33:15;11.10;99.90
17092;DHT22;8661;45.700;4.880;2022-12-29T01:35:42;11.10;99.90
17092;DHT22;8661;45.700;4.880;2022-12-29T01:38:09;11.00;99.90
17092;DHT22;8661;45.700;4.880;2022-12-29T01:40:43;11.00;99.90
17092;DHT22;8661;45.700;4.880;2022-12-29T01:43:12;10.90;99.90
17092;DHT22;8661;45.700;4.880;2022-12-29T01:45:43;10.80;99.90
17092;DHT22;8661;45.700;4.880;2022-12-29T01:48:12;10.80;99.90
17092;DHT22;8661;45.700;4.880;2022-12-29T01:50:43;10.80;99.90
17092;DHT22;8661;45.700;4.880;2022-12-29T01:53:16;10.80;99.90
17092;DHT22;8661;45.700;4.880;2022-12-29T01:55:46;10.80;99.90
17092;DHT22;8661;45.700;4.880;2022-12-29T01:58:15;10.80;99.90
17092;DHT22;8661;45.700;4.880;2022-12-29T02:00:45;10.80;99.90
17092;DHT22;8661;45.700;4.880;2022-12-29T02:03:12;10.80;99.90
17092;DHT22;8661;45.700;4.880;2022-12-29T02:05:43;10.80;99.90
17092;DHT22;8661;45.700;4.880;2022-12-29T02:08:13;10.70;99.90
17092;DHT22;8661;45.700;4.880;2022-12-29T02:10:40;10.70;99.90
17092;DHT22;8661;45.700;4.880;2022-12-29T02:13:08;10.70;99.90
17092;DHT22;8661;45.700;4.880;2022-12-29T02:15:46;10.70;99.90
17092;DHT22;8661;45.700;4.880;2022-12-29T02:18:25;10.70;99.90
17092;DHT22;8661;45.700;4.880;2022-12-29T02:21:30;10.70;99.90
17092;DHT22;8661;45.700;4.880;2022-12-29T02:24:11;10.70;99.90
17092;DHT22;8661;45.700;4.880;2022-12-29T02:30:04;10.70;99.90
17092;DHT22;8661;45.700;4.880;2022-12-29T02:32:39;10.70;99.90
17092;DHT22;8661;45.700;4.880;2022-12-29T02:35:19;10.80;99.90
17092;DHT22;8661;45.700;4.880;2022-12-29T02:37:58;10.80;99.90
17092;DHT22;8661;45.700;4.880;2022-12-29T02:40:30;10.80;99.90
17092;DHT22;8661;45.700;4.880;2022-12-29T02:43:03;10.80;99.90
17092;DHT22;8661;45.700;4.880;2022-12-29T02:45:35;10.90;99.90
17092;DHT22;8661;45.700;4.880;2022-12-29T02:48:10;10.90;99.90
17092;DHT22;8661;45.700;4.880;2022-12-29T02:50:46;10.90;99.90
17092;DHT22;8661;45.700;4.880;2022-12-29T02:53:17;11.00;99.90
17092;DHT22;8661;45.700;4.880;2022-12-29T02:56:09;11.00;99.90
17092;DHT22;8661;45.700;4.880;2022-12-29T02:58:35;11.10;99.90
17092;DHT22;8661;45.700;4.880;2022-12-29T03:01:17;11.10;99.90
17092;DHT22;8661;45.700;4.880;2022-12-29T03:03:56;11.10;99.90
17092;DHT22;8661;45.700;4.880;2022-12-29T03:06:35;11.10;99.90
17092;DHT22;8661;45.700;4.880;2022-12-29T03:09:11;11.10;99.90
17092;DHT22;8661;45.700;4.880;2022-12-29T03:11:50;11.10;99.90
17092;DHT22;8661;45.700;4.880;2022-12-29T03:14:44;11.20;99.90
17092;DHT22;8661;45.700;4.880;2022-12-29T03:17:40;11.20;99.90
17092;DHT22;8661;45.700;4.880;2022-12-29T03:20:16;11.20;99.90
17092;DHT22;8661;45.700;4.880;2022-12-29T03:22:47;11.20;99.90
17092;DHT22;8661;45.700;4.880;2022-12-29T03:25:20;11.30;99.90
17092;DHT22;8661;45.700;4.880;2022-12-29T03:27:51;11.30;99.90
17092;DHT22;8661;45.700;4.880;2022-12-29T03:30:19;11.40;99.90
17092;DHT22;8661;45.700;4.880;2022-12-29T03:32:49;11.40;99.90
17092;DHT22;8661;45.700;4.880;2022-12-29T03:35:21;11.40;99.90
17092;DHT22;8661;45.700;4.880;2022-12-29T03:37:51;11.40;99.90
17092;DHT22;8661;45.700;4.880;2022-12-29T03:40:21;11.40;99.90
17092;DHT22;8661;45.700;4.880;2022-12-29T03:42:49;11.50;99.90
17092;DHT22;8661;45.700;4.880;2022-12-29T03:45:17;11.50;99.90
17092;DHT22;8661;45.700;4.880;2022-12-29T03:47:44;11.60;99.90
17092;DHT22;8661;45.700;4.880;2022-12-29T03:50:12;11.60;99.90
17092;DHT22;8661;45.700;4.880;2022-12-29T03:52:40;11.60;99.90
17092;DHT22;8661;45.700;4.880;2022-12-29T03:55:08;11.60;99.90
17092;DHT22;8661;45.700;4.880;2022-12-29T03:57:34;11.60;99.90
17092;DHT22;8661;45.700;4.880;2022-12-29T04:00:02;11.60;99.90
17092;DHT22;8661;45.700;4.880;2022-12-29T04:02:29;11.70;99.90
17092;DHT22;8661;45.700;4.880;2022-12-29T04:04:56;11.70;99.90
17092;DHT22;8661;45.700;4.880;2022-12-29T04:07:23;11.70;99.90
17092;DHT22;8661;45.700;4.880;2022-12-29T04:09:51;11.70;99.90
17092;DHT22;8661;45.700;4.880;2022-12-29T04:12:18;11.70;99.90
17092;DHT22;8661;45.700;4.880;2022-12-29T04:14:45;11.80;99.90
17092;DHT22;8661;45.700;4.880;2022-12-29T04:17:12;11.80;99.90
17092;DHT22;8661;45.700;4.880;2022-12-29T04:19:38;11.80;99.90
17092;DHT22;8661;45.700;4.880;2022-12-29T04:22:05;11.80;99.90
17092;DHT22;8661;45.700;4.880;2022-12-29T04:24:32;11.80;99.90
17092;DHT22;8661;45.700;4.880;2022-12-29T04:27:00;11.90;99.90
17092;DHT22;8661;45.700;4.880;2022-12-29T04:29:27;11.90;99.90
17092;DHT22;8661;45.700;4.880;2022-12-29T04:31:54;11.90;99.90
17092;DHT22;8661;45.700;4.880;2022-12-29T04:34:21;12.00;99.90
17092;DHT22;8661;45.700;4.880;2022-12-29T04:36:48;12.00;99.90
17092;DHT22;8661;45.700;4.880;2022-12-29T04:39:15;12.00;99.90
17092;DHT22;8661;45.700;4.880;2022-12-29T04:41:41;12.00;99.90
17092;DHT22;8661;45.700;4.880;2022-12-29T04:44:10;12.00;99.90
17092;DHT22;8661;45.700;4.880;2022-12-29T04:46:36;12.00;99.90
17092;DHT22;8661;45.700;4.880;2022-12-29T04:49:03;12.00;99.90
17092;DHT22;8661;45.700;4.880;2022-12-29T04:51:34;12.00;99.90
17092;DHT22;8661;45.700;4.880;2022-12-29T04:54:01;12.00;99.90
17092;DHT22;8661;45.700;4.880;2022-12-29T04:56:28;12.00;99.90
17092;DHT22;8661;45.700;4.880;2022-12-29T04:58:54;12.10;99.90
17092;DHT22;8661;45.700;4.880;2022-12-29T05:01:23;12.00;99.90
17092;DHT22;8661;45.700;4.880;2022-12-29T05:03:50;12.10;99.90
17092;DHT22;8661;45.700;4.880;2022-12-29T05:06:17;12.10;99.90
17092;DHT22;8661;45.700;4.880;2022-12-29T05:08:44;12.10;99.90
17092;DHT22;8661;45.700;4.880;2022-12-29T05:11:11;12.00;99.90
17092;DHT22;8661;45.700;4.880;2022-12-29T05:13:38;12.00;99.90
17092;DHT22;8661;45.700;4.880;2022-12-29T05:16:05;12.10;99.90
17092;DHT22;8661;45.700;4.880;2022-12-29T05:18:33;12.00;99.90
17092;DHT22;8661;45.700;4.880;2022-12-29T05:21:00;12.10;99.90
17092;DHT22;8661;45.700;4.880;2022-12-29T05:23:27;12.10;99.90
17092;DHT22;8661;45.700;4.880;2022-12-29T05:25:54;12.00;99.90
17092;DHT22;8661;45.700;4.880;2022-12-29T05:28:21;12.00;99.90
17092;DHT22;8661;45.700;4.880;2022-12-29T05:30:48;12.10;99.90
17092;DHT22;8661;45.700;4.880;2022-12-29T05:33:16;12.10;99.90
17092;DHT22;8661;45.700;4.880;2022-12-29T05:35:44;12.00;99.90
17092;DHT22;8661;45.700;4.880;2022-12-29T05:38:12;12.00;99.90
17092;DHT22;8661;45.700;4.880;2022-12-29T05:40:39;12.00;99.90
17092;DHT22;8661;45.700;4.880;2022-12-29T05:43:06;12.00;99.90
17092;DHT22;8661;45.700;4.880;2022-12-29T05:45:32;12.00;99.90
17092;DHT22;8661;45.700;4.880;2022-12-29T05:47:59;12.00;99.90
17092;DHT22;8661;45.700;4.880;2022-12-29T05:50:26;12.00;99.90
17092;DHT22;8661;45.700;4.880;2022-12-29T05:52:54;11.90;99.90
17092;DHT22;8661;45.700;4.880;2022-12-29T05:55:21;11.90;99.90
17092;DHT22;8661;45.700;4.880;2022-12-29T05:57:48;11.90;99.90
17092;DHT22;8661;45.700;4.880;2022-12-29T06:00:15;11.80;99.90
17092;DHT22;8661;45.700;4.880;2022-12-29T06:02:42;11.80;99.90
17092;DHT22;8661;45.700;4.880;2022-12-29T06:05:09;11.70;99.90
17092;DHT22;8661;45.700;4.880;2022-12-29T06:07:36;11.60;99.90
17092;DHT22;8661;45.700;4.880;2022-12-29T06:10:06;11.60;99.90
17092;DHT22;8661;45.700;4.880;2022-12-29T06:12:33;11.50;99.90
17092;DHT22;8661;45.700;4.880;2022-12-29T06:15:00;11.50;99.90
17092;DHT22;8661;45.700;4.880;2022-12-29T06:17:26;11.40;99.90
17092;DHT22;8661;45.700;4.880;2022-12-29T06:19:53;11.40;99.90
17092;DHT22;8661;45.700;4.880;2022-12-29T06:22:20;11.40;99.90
17092;DHT22;8661;45.700;4.880;2022-12-29T06:24:47;11.50;99.90
17092;DHT22;8661;45.700;4.880;2022-12-29T06:27:15;11.50;99.90
17092;DHT22;8661;45.700;4.880;2022-12-29T06:29:42;11.50;99.90
17092;DHT22;8661;45.700;4.880;2022-12-29T06:32:09;11.50;99.90
17092;DHT22;8661;45.700;4.880;2022-12-29T06:34:36;11.50;99.90
17092;DHT22;8661;45.700;4.880;2022-12-29T06:37:03;11.50;99.90
17092;DHT22;8661;45.700;4.880;2022-12-29T06:39:30;11.60;99.90
17092;DHT22;8661;45.700;4.880;2022-12-29T06:41:56;11.60;99.90
17092;DHT22;8661;45.700;4.880;2022-12-29T06:44:25;11.60;99.90
17092;DHT22;8661;45.700;4.880;2022-12-29T06:46:52;11.70;99.90
17092;DHT22;8661;45.700;4.880;2022-12-29T06:49:18;11.80;99.90
17092;DHT22;8661;45.700;4.880;2022-12-29T06:51:45;11.80;99.90
17092;DHT22;8661;45.700;4.880;2022-12-29T06:54:12;11.90;99.90
17092;DHT22;8661;45.700;4.880;2022-12-29T06:56:40;11.90;99.90
17092;DHT22;8661;45.700;4.880;2022-12-29T06:59:06;11.90;99.90
17092;DHT22;8661;45.700;4.880;2022-12-29T07:01:35;11.90;99.90
17092;DHT22;8661;45.700;4.880;2022-12-29T07:04:02;11.90;99.90
17092;DHT22;8661;45.700;4.880;2022-12-29T07:06:29;12.00;99.90
17092;DHT22;8661;45.700;4.880;2022-12-29T07:08:56;12.00;99.90
17092;DHT22;8661;45.700;4.880;2022-12-29T07:11:23;12.00;99.90
17092;DHT22;8661;45.700;4.880;2022-12-29T07:13:50;11.90;99.90
17092;DHT22;8661;45.700;4.880;2022-12-29T07:16:17;12.00;99.90
17092;DHT22;8661;45.700;4.880;2022-12-29T07:18:45;11.90;99.90
17092;DHT22;8661;45.700;4.880;2022-12-29T07:21:12;11.90;99.90
17092;DHT22;8661;45.700;4.880;2022-12-29T07:23:39;11.90;99.90
17092;DHT22;8661;45.700;4.880;2022-12-29T07:26:08;11.90;99.90
17092;DHT22;8661;45.700;4.880;2022-12-29T07:28:36;11.90;99.90
17092;DHT22;8661;45.700;4.880;2022-12-29T07:31:03;11.90;99.90
17092;DHT22;8661;45.700;4.880;2022-12-29T07:33:31;11.90;99.90
17092;DHT22;8661;45.700;4.880;2022-12-29T07:35:59;11.90;99.90
17092;DHT22;8661;45.700;4.880;2022-12-29T07:38:26;11.80;99.90
17092;DHT22;8661;45.700;4.880;2022-12-29T07:40:56;11.90;99.90
17092;DHT22;8661;45.700;4.880;2022-12-29T07:43:23;11.90;99.90
17092;DHT22;8661;45.700;4.880;2022-12-29T07:45:50;11.90;99.90
17092;DHT22;8661;45.700;4.880;2022-12-29T07:48:17;11.90;99.90
17092;DHT22;8661;45.700;4.880;2022-12-29T07:50:44;11.90;99.90
17092;DHT22;8661;45.700;4.880;2022-12-29T07:53:12;12.00;99.90
17092;DHT22;8661;45.700;4.880;2022-12-29T07:55:39;12.00;99.90
17092;DHT22;8661;45.700;4.880;2022-12-29T07:58:06;12.10;99.90
17092;DHT22;8661;45.700;4.880;2022-12-29T08:00:33;12.20;99.90
17092;DHT22;8661;45.700;4.880;2022-12-29T08:03:00;12.20;99.90
17092;DHT22;8661;45.700;4.880;2022-12-29T08:05:27;12.30;99.90
17092;DHT22;8661;45.700;4.880;2022-12-29T08:07:54;12.30;99.90
17092;DHT22;8661;45.700;4.880;2022-12-29T08:10:24;12.40;99.90
17092;DHT22;8661;45.700;4.880;2022-12-29T08:12:51;12.40;99.90
17092;DHT22;8661;45.700;4.880;2022-12-29T08:15:18;12.40;99.90
17092;DHT22;8661;45.700;4.880;2022-12-29T08:17:45;12.40;99.90
17092;DHT22;8661;45.700;4.880;2022-12-29T08:20:12;12.40;99.90
17092;DHT22;8661;45.700;4.880;2022-12-29T08:22:40;12.40;99.90
17092;DHT22;8661;45.700;4.880;2022-12-29T08:25:07;12.50;99.90
17092;DHT22;8661;45.700;4.880;2022-12-29T08:27:36;12.50;99.90
17092;DHT22;8661;45.700;4.880;2022-12-29T08:30:03;12.50;99.90
17092;DHT22;8661;45.700;4.880;2022-12-29T08:32:30;12.60;99.90
17092;DHT22;8661;45.700;4.880;2022-12-29T08:34:57;12.70;99.90
17092;DHT22;8661;45.700;4.880;2022-12-29T08:37:24;12.70;99.90
17092;DHT22;8661;45.700;4.880;2022-12-29T08:39:51;12.90;99.90
17092;DHT22;8661;45.700;4.880;2022-12-29T08:42:18;13.10;99.90
17092;DHT22;8661;45.700;4.880;2022-12-29T08:44:46;13.30;99.90
17092;DHT22;8661;45.700;4.880;2022-12-29T08:47:13;13.30;99.90
17092;DHT22;8661;45.700;4.880;2022-12-29T08:49:40;13.30;99.90
17092;DHT22;8661;45.700;4.880;2022-12-29T08:52:07;13.40;99.90
17092;DHT22;8661;45.700;4.880;2022-12-29T08:54:34;13.70;99.90
17092;DHT22;8661;45.700;4.880;2022-12-29T08:57:01;14.10;99.90
17092;DHT22;8661;45.700;4.880;2022-12-29T08:59:28;14.60;99.90
17092;DHT22;8661;45.700;4.880;2022-12-29T09:01:56;15.20;99.90
17092;DHT22;8661;45.700;4.880;2022-12-29T09:04:23;16.00;99.90
17092;DHT22;8661;45.700;4.880;2022-12-29T09:06:50;16.70;99.90
17092;DHT22;8661;45.700;4.880;2022-12-29T09:09:17;17.40;99.90
17092;DHT22;8661;45.700;4.880;2022-12-29T09:11:45;17.50;99.90
17092;DHT22;8661;45.700;4.880;2022-12-29T09:14:13;17.30;99.90
17092;DHT22;8661;45.700;4.880;2022-12-29T09:16:40;18.50;99.90
17092;DHT22;8661;45.700;4.880;2022-12-29T09:19:25;18.80;99.90
17092;DHT22;8661;45.700;4.880;2022-12-29T09:21:52;18.70;99.90
17092;DHT22;8661;45.700;4.880;2022-12-29T09:24:19;18.30;99.90
17092;DHT22;8661;45.700;4.880;2022-12-29T09:26:46;17.80;99.90
17092;DHT22;8661;45.700;4.880;2022-12-29T09:29:13;17.60;99.90
17092;DHT22;8661;45.700;4.880;2022-12-29T09:31:40;18.20;99.90
17092;DHT22;8661;45.700;4.880;2022-12-29T09:34:07;18.60;99.90
17092;DHT22;8661;45.700;4.880;2022-12-29T09:36:35;17.80;99.90
17092;DHT22;8661;45.700;4.880;2022-12-29T09:39:02;17.40;99.90
17092;DHT22;8661;45.700;4.880;2022-12-29T09:41:35;17.20;99.90
17092;DHT22;8661;45.700;4.880;2022-12-29T09:44:08;17.50;99.90
17092;DHT22;8661;45.700;4.880;2022-12-29T09:46:41;17.90;99.90
17092;DHT22;8661;45.700;4.880;2022-12-29T09:49:19;17.60;99.90
17092;DHT22;8661;45.700;4.880;2022-12-29T09:51:52;17.50;99.90
17092;DHT22;8661;45.700;4.880;2022-12-29T09:54:37;17.20;99.90
17092;DHT22;8661;45.700;4.880;2022-12-29T09:57:13;17.30;99.90
17092;DHT22;8661;45.700;4.880;2022-12-29T09:59:43;17.00;99.90
17092;DHT22;8661;45.700;4.880;2022-12-29T10:02:31;16.70;99.90
17092;DHT22;8661;45.700;4.880;2022-12-29T10:04:59;16.30;99.90
17092;DHT22;8661;45.700;4.880;2022-12-29T10:07:36;15.90;99.90
17092;DHT22;8661;45.700;4.880;2022-12-29T10:10:20;15.80;99.90
17092;DHT22;8661;45.700;4.880;2022-12-29T10:13:01;15.70;99.90
17092;DHT22;8661;45.700;4.880;2022-12-29T10:15:40;15.50;99.90
17092;DHT22;8661;45.700;4.880;2022-12-29T10:18:37;15.50;99.90
17092;DHT22;8661;45.700;4.880;2022-12-29T10:21:14;15.60;99.90
17092;DHT22;8661;45.700;4.880;2022-12-29T10:23:47;15.50;99.90
17092;DHT22;8661;45.700;4.880;2022-12-29T10:26:18;15.40;99.90
17092;DHT22;8661;45.700;4.880;2022-12-29T10:28:48;15.20;99.90
17092;DHT22;8661;45.700;4.880;2022-12-29T10:31:20;15.10;99.90
17092;DHT22;8661;45.700;4.880;2022-12-29T10:33:49;15.10;99.90
17092;DHT22;8661;45.700;4.880;2022-12-29T10:36:24;15.00;99.90
17092;DHT22;8661;45.700;4.880;2022-12-29T10:39:04;15.10;99.90
17092;DHT22;8661;45.700;4.880;2022-12-29T10:41:36;15.00;99.90
17092;DHT22;8661;45.700;4.880;2022-12-29T10:44:04;14.90;99.90
17092;DHT22;8661;45.700;4.880;2022-12-29T10:46:35;14.80;99.90
17092;DHT22;8661;45.700;4.880;2022-12-29T10:49:03;14.90;99.90
17092;DHT22;8661;45.700;4.880;2022-12-29T10:51:33;14.80;99.90
17092;DHT22;8661;45.700;4.880;2022-12-29T10:54:09;14.80;99.90
17092;DHT22;8661;45.700;4.880;2022-12-29T10:56:40;14.80;99.90
17092;DHT22;8661;45.700;4.880;2022-12-29T10:59:16;14.80;99.90
17092;DHT22;8661;45.700;4.880;2022-12-29T11:01:50;14.80;99.90
17092;DHT22;8661;45.700;4.880;2022-12-29T11:04:32;14.80;99.90
17092;DHT22;8661;45.700;4.880;2022-12-29T11:07:01;14.90;99.90
17092;DHT22;8661;45.700;4.880;2022-12-29T11:09:32;15.00;99.90
17092;DHT22;8661;45.700;4.880;2022-12-29T11:12:00;15.00;99.90
17092;DHT22;8661;45.700;4.880;2022-12-29T11:14:29;15.00;99.90
17092;DHT22;8661;45.700;4.880;2022-12-29T11:17:00;15.00;99.90
17092;DHT22;8661;45.700;4.880;2022-12-29T11:19:29;15.00;99.90
17092;DHT22;8661;45.700;4.880;2022-12-29T11:22:13;15.00;99.90
17092;DHT22;8661;45.700;4.880;2022-12-29T11:24:45;15.00;99.90
17092;DHT22;8661;45.700;4.880;2022-12-29T11:27:16;15.10;99.90
17092;DHT22;8661;45.700;4.880;2022-12-29T11:29:44;15.10;99.90
17092;DHT22;8661;45.700;4.880;2022-12-29T11:32:12;15.10;99.90
17092;DHT22;8661;45.700;4.880;2022-12-29T11:34:39;15.20;99.90
17092;DHT22;8661;45.700;4.880;2022-12-29T11:37:11;15.20;99.90
17092;DHT22;8661;45.700;4.880;2022-12-29T11:39:42;15.20;99.90
17092;DHT22;8661;45.700;4.880;2022-12-29T11:42:16;15.20;99.90
17092;DHT22;8661;45.700;4.880;2022-12-29T11:44:45;15.20;99.90
17092;DHT22;8661;45.700;4.880;2022-12-29T11:47:20;15.20;99.90
17092;DHT22;8661;45.700;4.880;2022-12-29T11:49:50;15.20;99.90
17092;DHT22;8661;45.700;4.880;2022-12-29T11:52:22;15.40;99.90
17092;DHT22;8661;45.700;4.880;2022-12-29T11:54:50;15.40;99.90
17092;DHT22;8661;45.700;4.880;2022-12-29T11:57:19;15.30;99.90
17092;DHT22;8661;45.700;4.880;2022-12-29T11:59:52;15.30;99.90
17092;DHT22;8661;45.700;4.880;2022-12-29T12:02:42;15.30;99.90
17092;DHT22;8661;45.700;4.880;2022-12-29T12:05:24;15.30;99.90
17092;DHT22;8661;45.700;4.880;2022-12-29T12:07:57;15.30;99.90
17092;DHT22;8661;45.700;4.880;2022-12-29T12:10:29;15.30;99.90
17092;DHT22;8661;45.700;4.880;2022-12-29T12:13:11;15.40;99.90
17092;DHT22;8661;45.700;4.880;2022-12-29T12:15:46;15.40;99.90
17092;DHT22;8661;45.700;4.880;2022-12-29T12:18:18;15.40;99.90
17092;DHT22;8661;45.700;4.880;2022-12-29T12:20:50;15.40;99.90
17092;DHT22;8661;45.700;4.880;2022-12-29T12:23:42;15.40;99.90
17092;DHT22;8661;45.700;4.880;2022-12-29T12:26:12;15.40;99.90
17092;DHT22;8661;45.700;4.880;2022-12-29T12:28:48;15.40;99.90
17092;DHT22;8661;45.700;4.880;2022-12-29T12:31:21;15.40;99.90
17092;DHT22;8661;45.700;4.880;2022-12-29T12:33:53;15.40;99.90
17092;DHT22;8661;45.700;4.880;2022-12-29T12:36:39;15.30;99.90
17092;DHT22;8661;45.700;4.880;2022-12-29T12:39:15;15.30;99.90
17092;DHT22;8661;45.700;4.880;2022-12-29T12:41:50;15.30;99.90
17092;DHT22;8661;45.700;4.880;2022-12-29T12:44:28;15.30;99.90
17092;DHT22;8661;45.700;4.880;2022-12-29T12:47:17;15.30;99.90
17092;DHT22;8661;45.700;4.880;2022-12-29T12:53:21;15.30;99.90
17092;DHT22;8661;45.700;4.880;2022-12-29T12:55:59;15.30;99.90
17092;DHT22;8661;45.700;4.880;2022-12-29T12:58:35;15.30;99.90
17092;DHT22;8661;45.700;4.880;2022-12-29T13:01:15;15.30;99.90
17092;DHT22;8661;45.700;4.880;2022-12-29T13:03:57;15.30;99.90
17092;DHT22;8661;45.700;4.880;2022-12-29T13:06:34;15.30;99.90
17092;DHT22;8661;45.700;4.880;2022-12-29T13:12:15;15.30;99.90
17092;DHT22;8661;45.700;4.880;2022-12-29T13:14:56;15.40;99.90
17092;DHT22;8661;45.700;4.880;2022-12-29T13:17:33;15.40;99.90
17092;DHT22;8661;45.700;4.880;2022-12-29T13:20:10;15.50;99.90
17092;DHT22;8661;45.700;4.880;2022-12-29T13:22:48;15.40;99.90
17092;DHT22;8661;45.700;4.880;2022-12-29T13:25:27;15.40;99.90
17092;DHT22;8661;45.700;4.880;2022-12-29T13:28:02;15.40;99.90
17092;DHT22;8661;45.700;4.880;2022-12-29T13:30:33;15.30;99.90
17092;DHT22;8661;45.700;4.880;2022-12-29T13:33:07;15.30;99.90
17092;DHT22;8661;45.700;4.880;2022-12-29T13:35:51;15.20;99.90
17092;DHT22;8661;45.700;4.880;2022-12-29T13:38:24;15.20;99.90
17092;DHT22;8661;45.700;4.880;2022-12-29T13:40:55;15.10;99.90
17092;DHT22;8661;45.700;4.880;2022-12-29T13:43:23;15.10;99.90
17092;DHT22;8661;45.700;4.880;2022-12-29T13:45:59;15.00;99.90
17092;DHT22;8661;45.700;4.880;2022-12-29T13:48:37;15.00;99.90
17092;DHT22;8661;45.700;4.880;2022-12-29T13:51:06;14.90;99.90
17092;DHT22;8661;45.700;4.880;2022-12-29T13:53:41;14.90;99.90
17092;DHT22;8661;45.700;4.880;2022-12-29T13:56:12;14.80;99.90
17092;DHT22;8661;45.700;4.880;2022-12-29T13:58:47;14.80;99.90
17092;DHT22;8661;45.700;4.880;2022-12-29T14:01:18;14.80;99.90
17092;DHT22;8661;45.700;4.880;2022-12-29T14:03:50;14.70;99.90
17092;DHT22;8661;45.700;4.880;2022-12-29T14:06:23;14.70;99.90
17092;DHT22;8661;45.700;4.880;2022-12-29T14:08:52;14.60;99.90
17092;DHT22;8661;45.700;4.880;2022-12-29T14:11:22;14.60;99.90
17092;DHT22;8661;45.700;4.880;2022-12-29T14:13:51;14.60;99.90
17092;DHT22;8661;45.700;4.880;2022-12-29T14:16:34;14.60;99.90
17092;DHT22;8661;45.700;4.880;2022-12-29T14:19:13;14.60;99.90
17092;DHT22;8661;45.700;4.880;2022-12-29T14:21:50;14.60;99.90
17092;DHT22;8661;45.700;4.880;2022-12-29T14:24:40;14.60;99.90
17092;DHT22;8661;45.700;4.880;2022-12-29T14:27:42;14.50;99.90
17092;DHT22;8661;45.700;4.880;2022-12-29T14:33:27;14.50;99.90
17092;DHT22;8661;45.700;4.880;2022-12-29T14:35:56;14.50;99.90
17092;DHT22;8661;45.700;4.880;2022-12-29T14:38:30;14.50;99.90
17092;DHT22;8661;45.700;4.880;2022-12-29T14:41:32;14.40;99.90
17092;DHT22;8661;45.700;4.880;2022-12-29T14:44:02;14.40;99.90
17092;DHT22;8661;45.700;4.880;2022-12-29T14:46:46;14.40;99.90
17092;DHT22;8661;45.700;4.880;2022-12-29T14:49:18;14.40;99.90
17092;DHT22;8661;45.700;4.880;2022-12-29T14:51:48;14.40;99.90
17092;DHT22;8661;45.700;4.880;2022-12-29T14:54:43;14.30;99.90
17092;DHT22;8661;45.700;4.880;2022-12-29T14:57:18;14.30;99.90
17092;DHT22;8661;45.700;4.880;2022-12-29T14:59:47;14.30;99.90
17092;DHT22;8661;45.700;4.880;2022-12-29T15:02:19;14.20;99.90
17092;DHT22;8661;45.700;4.880;2022-12-29T15:04:47;14.20;99.90
17092;DHT22;8661;45.700;4.880;2022-12-29T15:07:18;14.20;99.90
17092;DHT22;8661;45.700;4.880;2022-12-29T15:09:50;14.20;99.90
17092;DHT22;8661;45.700;4.880;2022-12-29T15:12:22;14.20;99.90
17092;DHT22;8661;45.700;4.880;2022-12-29T15:14:55;14.20;99.90
17092;DHT22;8661;45.700;4.880;2022-12-29T15:17:25;14.20;99.90
17092;DHT22;8661;45.700;4.880;2022-12-29T15:19:52;14.20;99.90
17092;DHT22;8661;45.700;4.880;2022-12-29T15:22:21;14.10;99.90
17092;DHT22;8661;45.700;4.880;2022-12-29T15:24:49;14.10;99.90
17092;DHT22;8661;45.700;4.880;2022-12-29T15:27:20;14.10;99.90
17092;DHT22;8661;45.700;4.880;2022-12-29T15:29:47;14.10;99.90
17092;DHT22;8661;45.700;4.880;2022-12-29T15:32:20;14.10;99.90
17092;DHT22;8661;45.700;4.880;2022-12-29T15:34:49;14.10;99.90
17092;DHT22;8661;45.700;4.880;2022-12-29T15:37:20;14.10;99.90
17092;DHT22;8661;45.700;4.880;2022-12-29T15:39:48;14.00;99.90
17092;DHT22;8661;45.700;4.880;2022-12-29T15:42:43;14.00;99.90
17092;DHT22;8661;45.700;4.880;2022-12-29T15:45:14;14.00;99.90
17092;DHT22;8661;45.700;4.880;2022-12-29T15:47:43;14.00;99.90
17092;DHT22;8661;45.700;4.880;2022-12-29T15:50:19;14.00;99.90
17092;DHT22;8661;45.700;4.880;2022-12-29T15:52:48;13.90;99.90
17092;DHT22;8661;45.700;4.880;2022-12-29T15:55:23;13.90;99.90
17092;DHT22;8661;45.700;4.880;2022-12-29T15:57:55;13.80;99.90
17092;DHT22;8661;45.700;4.880;2022-12-29T16:00:29;13.80;99.90
17092;DHT22;8661;45.700;4.880;2022-12-29T16:02:59;13.70;99.90
17092;DHT22;8661;45.700;4.880;2022-12-29T16:05:32;13.60;99.90
17092;DHT22;8661;45.700;4.880;2022-12-29T16:08:02;13.40;99.90
17092;DHT22;8661;45.700;4.880;2022-12-29T16:10:32;13.30;99.90
17092;DHT22;8661;45.700;4.880;2022-12-29T16:13:05;13.10;99.90
17092;DHT22;8661;45.700;4.880;2022-12-29T16:15:33;13.00;99.90
17092;DHT22;8661;45.700;4.880;2022-12-29T16:18:00;12.90;99.90
17092;DHT22;8661;45.700;4.880;2022-12-29T16:20:35;12.80;99.90
17092;DHT22;8661;45.700;4.880;2022-12-29T16:23:05;12.80;99.90
17092;DHT22;8661;45.700;4.880;2022-12-29T16:25:41;12.80;99.90